createdAt,value
2018-01-26T00:00:53.013Z,8.03
2018-01-26T00:01:52.988Z,8.06
2018-01-26T00:03:46.206Z,8.09
2018-01-26T00:04:46.051Z,8.06
2018-01-26T00:06:39.038Z,8.05
2018-01-26T00:07:38.954Z,8.08
2018-01-26T00:09:31.932Z,8.06
2018-01-26T00:10:31.892Z,8.05
2018-01-26T00:12:25.072Z,8.09
2018-01-26T00:13:24.986Z,8.12
2018-01-26T00:15:17.921Z,8.01
2018-01-26T00:16:17.888Z,8.10
2018-01-26T00:18:10.703Z,8.13
2018-01-26T00:19:10.632Z,8.05
2018-01-26T00:21:03.768Z,8.03
2018-01-26T00:22:03.723Z,8.03
2018-01-26T00:23:56.598Z,8.05
2018-01-26T00:24:56.552Z,8.08
2018-01-26T00:26:49.373Z,8.08
2018-01-26T00:27:49.336Z,7.98
2018-01-26T00:29:42.296Z,8.00
2018-01-26T00:30:42.241Z,7.97
2018-01-26T00:32:35.378Z,7.93
2018-01-26T00:33:35.339Z,7.93
2018-01-26T00:35:28.294Z,7.94
2018-01-26T00:36:28.246Z,7.87
2018-01-26T00:38:21.207Z,7.91
2018-01-26T00:39:21.149Z,7.80
2018-01-26T00:41:14.047Z,7.90
2018-01-26T00:42:14.002Z,7.85
2018-01-26T00:44:06.983Z,7.88
2018-01-26T00:45:06.931Z,7.83
2018-01-26T00:46:59.946Z,7.87
2018-01-26T00:47:59.917Z,7.87
2018-01-26T00:49:53.063Z,7.87
2018-01-26T00:50:52.984Z,7.94
2018-01-26T00:52:45.803Z,7.88
2018-01-26T00:53:45.762Z,7.93
2018-01-26T00:55:38.726Z,7.85
2018-01-26T00:56:38.778Z,7.91
2018-01-26T00:58:31.869Z,7.88
2018-01-26T00:59:31.718Z,7.87
2018-01-26T01:01:24.699Z,7.93
2018-01-26T01:02:24.640Z,7.95
2018-01-26T01:04:17.433Z,7.98
2018-01-26T01:05:17.404Z,7.98
2018-01-26T01:07:10.419Z,8.00
2018-01-26T01:08:10.334Z,7.97
2018-01-26T01:10:03.330Z,7.97
2018-01-26T01:11:03.209Z,7.97
2018-01-26T01:12:56.046Z,7.98
2018-01-26T01:13:55.968Z,7.98
2018-01-26T01:15:48.946Z,7.95
2018-01-26T01:16:48.892Z,7.94
2018-01-26T01:18:41.840Z,7.93
2018-01-26T01:19:41.781Z,7.98
2018-01-26T01:21:34.613Z,7.98
2018-01-26T01:22:34.543Z,7.97
2018-01-26T01:24:27.361Z,7.93
2018-01-26T01:25:27.314Z,7.94
2018-01-26T01:27:20.278Z,7.90
2018-01-26T01:28:20.207Z,7.91
2018-01-26T01:30:13.163Z,7.83
2018-01-26T01:31:13.133Z,7.87
2018-01-26T01:33:06.394Z,7.87
2018-01-26T01:34:06.214Z,7.90
2018-01-26T01:35:59.192Z,7.82
2018-01-26T01:36:59.173Z,7.76
2018-01-26T01:38:52.112Z,7.75
2018-01-26T01:39:52.072Z,7.82
2018-01-26T01:41:44.859Z,7.80
2018-01-26T01:42:44.826Z,7.73
2018-01-26T01:44:37.903Z,7.76
2018-01-26T01:45:37.699Z,7.75
2018-01-26T01:47:30.663Z,7.80
2018-01-26T01:48:30.594Z,7.76
2018-01-26T01:50:23.615Z,7.72
2018-01-26T01:51:23.574Z,7.73
2018-01-26T01:53:16.723Z,7.73
2018-01-26T01:54:16.658Z,7.75
2018-01-26T01:56:09.599Z,7.67
2018-01-26T01:57:09.568Z,7.72
2018-01-26T01:59:02.534Z,7.72
2018-01-26T02:00:02.459Z,7.73
2018-01-26T02:01:55.270Z,7.76
2018-01-26T02:02:55.221Z,7.72
2018-01-26T02:04:48.222Z,7.79
2018-01-26T02:05:48.182Z,7.80
2018-01-26T02:07:41.129Z,7.73
2018-01-26T02:08:41.079Z,7.77
2018-01-26T02:10:34.043Z,7.79
2018-01-26T02:11:33.996Z,7.79
2018-01-26T02:13:26.918Z,7.82
2018-01-26T02:14:26.847Z,7.76
2018-01-26T02:16:19.789Z,7.76
2018-01-26T02:17:19.742Z,7.75
2018-01-26T02:19:12.702Z,7.70
2018-01-26T02:20:12.793Z,7.76
2018-01-26T02:22:05.438Z,7.88
2018-01-26T02:23:05.417Z,7.75
2018-01-26T02:24:58.592Z,7.70
2018-01-26T02:25:58.457Z,7.87
2018-01-26T02:27:51.429Z,7.77
2018-01-26T02:28:51.394Z,7.77
2018-01-26T02:30:44.371Z,7.67
2018-01-26T02:31:44.307Z,7.69
2018-01-26T02:33:37.184Z,7.83
2018-01-26T02:34:37.144Z,7.69
2018-01-26T02:36:30.107Z,7.69
2018-01-26T02:37:30.037Z,7.67
2018-01-26T02:39:22.854Z,7.69
2018-01-26T02:40:22.817Z,7.67
2018-01-26T02:42:15.653Z,7.76
2018-01-26T02:43:15.583Z,7.73
2018-01-26T02:45:08.508Z,7.69
2018-01-26T02:46:08.486Z,7.67
2018-01-26T02:48:01.300Z,7.58
2018-01-26T02:49:01.238Z,7.61
2018-01-26T02:50:54.205Z,7.76
2018-01-26T02:51:54.144Z,7.69
2018-01-26T02:53:47.087Z,7.72
2018-01-26T02:54:47.055Z,7.75
2018-01-26T02:56:40.013Z,7.76
2018-01-26T02:57:39.958Z,7.63
2018-01-26T02:59:32.758Z,7.67
2018-01-26T03:00:32.726Z,7.67
2018-01-26T03:02:25.679Z,7.72
2018-01-26T03:03:25.617Z,7.69
2018-01-26T03:05:18.567Z,7.77
2018-01-26T03:06:18.533Z,7.80
2018-01-26T03:08:11.499Z,7.72
2018-01-26T03:09:11.437Z,7.72
2018-01-26T03:11:04.324Z,7.73
2018-01-26T03:12:04.272Z,7.67
2018-01-26T03:13:57.235Z,7.77
2018-01-26T03:14:57.188Z,7.70
2018-01-26T03:16:50.119Z,7.79
2018-01-26T03:17:50.072Z,7.73
2018-01-26T03:19:43.314Z,7.60
2018-01-26T03:20:43.143Z,7.70
2018-01-26T03:22:36.079Z,7.60
2018-01-26T03:23:36.052Z,7.61
2018-01-26T03:25:28.999Z,7.57
2018-01-26T03:26:28.959Z,7.56
2018-01-26T03:28:22.111Z,7.48
2018-01-26T03:29:22.028Z,7.48
2018-01-26T03:31:15.028Z,7.47
2018-01-26T03:32:14.959Z,7.51
2018-01-26T03:34:07.917Z,7.42
2018-01-26T03:35:07.882Z,7.50
2018-01-26T03:37:01.090Z,7.51
2018-01-26T03:38:01.015Z,7.48
2018-01-26T03:39:53.994Z,7.50
2018-01-26T03:40:53.927Z,7.47
2018-01-26T03:42:46.744Z,7.48
2018-01-26T03:43:46.687Z,7.48
2018-01-26T03:45:39.915Z,7.42
2018-01-26T03:46:39.840Z,7.45
2018-01-26T03:48:32.805Z,7.45
2018-01-26T03:49:32.774Z,7.43
2018-01-26T03:51:25.752Z,7.40
2018-01-26T03:52:25.694Z,7.42
2018-01-26T03:54:18.754Z,7.42
2018-01-26T03:55:18.727Z,7.47
2018-01-26T03:57:11.725Z,7.39
2018-01-26T03:58:11.675Z,7.33
2018-01-26T04:00:04.608Z,7.36
2018-01-26T04:01:04.572Z,7.40
2018-01-26T04:02:57.654Z,7.40
2018-01-26T04:03:57.590Z,7.39
2018-01-26T04:05:50.533Z,7.38
2018-01-26T04:06:50.484Z,7.39
2018-01-26T04:08:43.449Z,7.36
2018-01-26T04:09:43.404Z,7.25
2018-01-26T04:11:36.362Z,7.28
2018-01-26T04:12:36.229Z,7.28
2018-01-26T04:14:29.209Z,7.25
2018-01-26T04:15:29.131Z,7.21
2018-01-26T04:17:22.113Z,7.24
2018-01-26T04:18:22.045Z,7.25
2018-01-26T04:20:15.146Z,7.23
2018-01-26T04:21:15.088Z,7.28
2018-01-26T04:23:08.063Z,7.24
2018-01-26T04:24:07.994Z,7.24
2018-01-26T04:26:00.934Z,7.24
2018-01-26T04:27:00.911Z,7.17
2018-01-26T04:28:54.198Z,7.13
2018-01-26T04:29:54.016Z,7.17
2018-01-26T04:31:46.946Z,7.23
2018-01-26T04:32:46.777Z,7.18
2018-01-26T04:34:39.774Z,7.23
2018-01-26T04:35:39.704Z,7.13
2018-01-26T04:37:32.657Z,7.21
2018-01-26T04:38:32.619Z,7.13
2018-01-26T04:40:25.685Z,7.14
2018-01-26T04:41:25.515Z,7.02
2018-01-26T04:43:18.465Z,7.13
2018-01-26T04:44:18.440Z,7.02
2018-01-26T04:46:11.391Z,7.20
2018-01-26T04:47:11.349Z,7.03
2018-01-26T04:49:04.480Z,7.02
2018-01-26T04:50:04.419Z,7.03
2018-01-26T04:51:57.385Z,7.05
2018-01-26T04:52:57.333Z,7.03
2018-01-26T04:54:50.305Z,7.11
2018-01-26T04:55:50.241Z,6.99
2018-01-26T04:57:43.349Z,7.02
2018-01-26T04:58:43.169Z,7.00
2018-01-26T05:00:36.129Z,6.96
2018-01-26T05:01:36.084Z,7.00
2018-01-26T05:03:29.089Z,6.99
2018-01-26T05:04:29.016Z,6.95
2018-01-26T05:06:22.438Z,6.99
2018-01-26T05:07:22.113Z,6.96
2018-01-26T05:09:14.939Z,7.00
2018-01-26T05:10:14.879Z,7.00
2018-01-26T05:12:07.688Z,6.99
2018-01-26T05:13:07.635Z,6.92
2018-01-26T05:15:00.461Z,7.00
2018-01-26T05:16:00.543Z,6.88
2018-01-26T05:17:53.454Z,6.89
2018-01-26T05:18:53.418Z,6.85
2018-01-26T05:20:46.384Z,6.93
2018-01-26T05:21:46.324Z,6.84
2018-01-26T05:23:39.304Z,6.84
2018-01-26T05:24:39.239Z,6.84
2018-01-26T05:26:32.187Z,6.84
2018-01-26T05:27:32.134Z,6.87
2018-01-26T05:29:24.987Z,6.82
2018-01-26T05:30:24.921Z,6.82
2018-01-26T05:32:17.822Z,6.87
2018-01-26T05:33:17.694Z,6.81
2018-01-26T05:35:10.714Z,6.85
2018-01-26T05:36:10.664Z,6.82
2018-01-26T05:38:03.682Z,6.84
2018-01-26T05:39:03.648Z,6.81
2018-01-26T05:40:56.700Z,6.79
2018-01-26T05:41:56.615Z,6.77
2018-01-26T05:43:49.550Z,6.72
2018-01-26T05:44:49.511Z,6.69
2018-01-26T05:46:42.334Z,6.77
2018-01-26T05:47:42.305Z,6.64
2018-01-26T05:49:35.540Z,6.62
2018-01-26T05:50:35.500Z,6.64
2018-01-26T05:52:28.320Z,6.59
2018-01-26T05:53:28.265Z,6.56
2018-01-26T05:55:21.215Z,6.48
2018-01-26T05:56:21.174Z,6.56
2018-01-26T05:58:14.424Z,6.48
2018-01-26T05:59:14.290Z,6.44
2018-01-26T06:01:07.376Z,6.45
2018-01-26T06:02:07.306Z,6.48
2018-01-26T06:04:00.409Z,6.48
2018-01-26T06:05:00.356Z,6.35
2018-01-26T06:06:53.311Z,6.28
2018-01-26T06:07:53.264Z,6.22
2018-01-26T06:09:46.224Z,6.24
2018-01-26T06:10:46.264Z,6.22
2018-01-26T06:12:38.976Z,6.17
2018-01-26T06:13:38.999Z,6.20
2018-01-26T06:15:32.056Z,6.19
2018-01-26T06:16:31.980Z,6.16
2018-01-26T06:18:24.809Z,6.14
2018-01-26T06:19:24.752Z,5.99
2018-01-26T06:21:17.691Z,6.02
2018-01-26T06:22:17.760Z,6.01
2018-01-26T06:24:12.016Z,5.99
2018-01-26T06:25:11.729Z,5.97
2018-01-26T06:27:04.684Z,5.99
2018-01-26T06:28:04.638Z,6.04
2018-01-26T06:29:57.461Z,6.02
2018-01-26T06:30:57.399Z,6.05
2018-01-26T06:32:50.379Z,6.05
2018-01-26T06:33:50.310Z,6.04
2018-01-26T06:35:43.282Z,6.11
2018-01-26T06:36:43.206Z,6.16
2018-01-26T06:38:36.203Z,6.19
2018-01-26T06:39:36.111Z,6.12
2018-01-26T06:41:29.056Z,6.12
2018-01-26T06:42:29.004Z,6.14
2018-01-26T06:44:21.820Z,6.19
2018-01-26T06:45:21.755Z,6.12
2018-01-26T06:47:14.706Z,6.16
2018-01-26T06:48:14.666Z,6.17
2018-01-26T06:50:07.618Z,6.22
2018-01-26T06:51:07.566Z,6.26
2018-01-26T06:53:00.570Z,6.24
2018-01-26T06:54:00.626Z,6.28
2018-01-26T06:55:53.344Z,6.22
2018-01-26T06:56:53.289Z,6.26
2018-01-26T06:58:46.208Z,6.24
2018-01-26T06:59:46.171Z,6.20
2018-01-26T07:01:39.120Z,6.20
2018-01-26T07:02:39.080Z,6.12
2018-01-26T07:04:32.011Z,6.24
2018-01-26T07:05:32.051Z,6.19
2018-01-26T07:07:25.271Z,6.24
2018-01-26T07:08:25.093Z,6.17
2018-01-26T07:10:18.062Z,6.17
2018-01-26T07:11:18.007Z,6.28
2018-01-26T07:13:10.961Z,6.28
2018-01-26T07:14:10.950Z,6.22
2018-01-26T07:16:04.104Z,6.30
2018-01-26T07:17:03.979Z,6.22
2018-01-26T07:18:56.909Z,6.38
2018-01-26T07:19:56.881Z,6.33
2018-01-26T07:21:49.689Z,6.38
2018-01-26T07:22:49.649Z,6.35
2018-01-26T07:24:43.054Z,6.44
2018-01-26T07:25:42.545Z,6.39
2018-01-26T07:27:35.524Z,6.45
2018-01-26T07:28:35.344Z,6.46
2018-01-26T07:30:28.189Z,6.44
2018-01-26T07:31:28.099Z,6.42
2018-01-26T07:33:21.066Z,6.44
2018-01-26T07:34:21.012Z,6.41
2018-01-26T07:36:14.007Z,6.38
2018-01-26T07:37:13.934Z,6.45
2018-01-26T07:39:06.737Z,6.41
2018-01-26T07:40:06.698Z,6.46
2018-01-26T07:41:59.738Z,6.42
2018-01-26T07:42:59.618Z,6.42
2018-01-26T07:44:52.576Z,6.49
2018-01-26T07:45:52.538Z,6.48
2018-01-26T07:47:45.507Z,6.36
2018-01-26T07:48:45.464Z,6.46
2018-01-26T07:50:38.284Z,6.45
2018-01-26T07:51:38.266Z,6.49
2018-01-26T07:53:31.225Z,6.42
2018-01-26T07:54:31.177Z,6.51
2018-01-26T07:56:24.099Z,6.52
2018-01-26T07:57:24.085Z,6.46
2018-01-26T07:59:17.031Z,6.46
2018-01-26T08:00:16.965Z,6.57
2018-01-26T08:02:09.785Z,6.56
2018-01-26T08:03:09.738Z,6.49
2018-01-26T08:05:02.561Z,6.70
2018-01-26T08:06:02.480Z,6.66
2018-01-26T08:07:55.425Z,6.70
2018-01-26T08:08:55.385Z,6.77
2018-01-26T08:10:48.213Z,6.77
2018-01-26T08:11:48.147Z,6.74
2018-01-26T08:13:41.116Z,6.77
2018-01-26T08:14:41.052Z,6.79
2018-01-26T08:16:33.929Z,6.84
2018-01-26T08:17:33.885Z,6.87
2018-01-26T08:19:26.847Z,6.89
2018-01-26T08:20:26.794Z,6.99
2018-01-26T08:22:19.734Z,7.03
2018-01-26T08:23:19.706Z,7.00
2018-01-26T08:25:12.886Z,7.02
2018-01-26T08:26:12.728Z,7.00
2018-01-26T08:28:05.670Z,7.06
2018-01-26T08:29:05.648Z,7.06
2018-01-26T08:30:58.607Z,7.06
2018-01-26T08:31:58.560Z,7.00
2018-01-26T08:33:51.570Z,7.18
2018-01-26T08:34:51.540Z,7.14
2018-01-26T08:36:44.547Z,7.23
2018-01-26T08:37:44.500Z,7.21
2018-01-26T08:39:37.422Z,7.21
2018-01-26T08:40:37.491Z,7.18
2018-01-26T08:42:30.350Z,7.32
2018-01-26T08:43:30.289Z,7.39
2018-01-26T08:45:23.362Z,7.38
2018-01-26T08:46:23.102Z,7.36
2018-01-26T08:48:16.045Z,7.50
2018-01-26T08:49:16.006Z,7.48
2018-01-26T08:51:08.982Z,7.48
2018-01-26T08:52:08.985Z,7.53
2018-01-26T08:54:02.146Z,7.63
2018-01-26T08:55:01.996Z,7.54
2018-01-26T08:56:54.968Z,7.60
2018-01-26T08:57:54.905Z,7.66
2018-01-26T08:59:47.849Z,7.73
2018-01-26T09:00:47.803Z,7.75
2018-01-26T09:02:40.625Z,7.76
2018-01-26T09:03:40.564Z,7.76
2018-01-26T09:05:33.367Z,7.88
2018-01-26T09:06:33.353Z,7.93
2018-01-26T09:08:26.315Z,7.95
2018-01-26T09:09:26.248Z,8.01
2018-01-26T09:11:19.070Z,8.08
2018-01-26T09:12:19.007Z,8.05
2018-01-26T09:14:11.967Z,8.13
2018-01-26T09:15:11.917Z,8.19
2018-01-26T09:17:04.735Z,8.24
2018-01-26T09:18:04.688Z,8.24
2018-01-26T09:19:57.512Z,8.42
2018-01-26T09:20:57.468Z,8.42
2018-01-26T09:22:50.357Z,8.42
2018-01-26T09:23:50.241Z,8.46
2018-01-26T09:25:43.180Z,8.53
2018-01-26T09:26:43.146Z,8.60
2018-01-26T09:28:35.975Z,8.60
2018-01-26T09:29:36.050Z,8.71
2018-01-26T09:31:28.857Z,8.67
2018-01-26T09:32:28.826Z,8.78
2018-01-26T09:34:21.651Z,8.79
2018-01-26T09:35:21.591Z,8.85
2018-01-26T09:37:14.545Z,8.87
2018-01-26T09:38:14.502Z,8.82
2018-01-26T09:40:07.468Z,8.82
2018-01-26T09:41:07.409Z,8.92
2018-01-26T09:43:00.353Z,8.87
2018-01-26T09:44:00.315Z,8.95
2018-01-26T09:45:53.410Z,8.97
2018-01-26T09:46:53.307Z,8.99
2018-01-26T09:48:46.285Z,8.95
2018-01-26T09:49:46.232Z,8.88
2018-01-26T09:51:39.033Z,8.85
2018-01-26T09:52:39.051Z,8.94
2018-01-26T09:54:32.256Z,8.97
2018-01-26T09:55:32.120Z,8.92
2018-01-26T09:57:24.903Z,8.97
2018-01-26T09:58:24.861Z,9.02
2018-01-26T10:00:17.694Z,8.94
2018-01-26T10:01:17.630Z,9.03
2018-01-26T10:03:10.572Z,9.04
2018-01-26T10:04:10.548Z,8.94
2018-01-26T10:06:03.359Z,9.00
2018-01-26T10:07:03.302Z,9.00
2018-01-26T10:08:56.129Z,9.04
2018-01-26T10:09:56.113Z,9.08
2018-01-26T10:11:48.930Z,9.00
2018-01-26T10:12:48.853Z,9.06
2018-01-26T10:14:41.799Z,9.08
2018-01-26T10:15:41.775Z,9.11
2018-01-26T10:17:34.783Z,9.22
2018-01-26T10:18:34.727Z,9.22
2018-01-26T10:20:27.608Z,9.31
2018-01-26T10:21:27.576Z,9.28
2018-01-26T10:23:20.525Z,9.39
2018-01-26T10:24:20.478Z,9.40
2018-01-26T10:26:13.440Z,9.43
2018-01-26T10:27:13.466Z,9.44
2018-01-26T10:29:06.393Z,9.48
2018-01-26T10:30:06.356Z,9.61
2018-01-26T10:31:59.347Z,9.74
2018-01-26T10:32:59.292Z,9.72
2018-01-26T10:34:52.233Z,9.69
2018-01-26T10:35:52.317Z,9.80
2018-01-26T10:37:45.151Z,9.92
2018-01-26T10:38:45.098Z,9.94
2018-01-26T10:40:37.912Z,10.07
2018-01-26T10:41:37.875Z,10.12
2018-01-26T10:43:30.841Z,10.31
2018-01-26T10:44:30.783Z,10.26
2018-01-26T10:46:23.602Z,10.44
2018-01-26T10:47:23.567Z,10.46
2018-01-26T10:49:16.551Z,10.63
2018-01-26T10:50:16.496Z,10.69
2018-01-26T10:52:09.301Z,10.81
2018-01-26T10:53:09.271Z,10.99
2018-01-26T10:55:02.302Z,11.22
2018-01-26T10:56:02.046Z,11.14
2018-01-26T10:57:55.003Z,10.97
2018-01-26T10:58:54.966Z,10.96
2018-01-26T11:00:47.972Z,10.86
2018-01-26T11:01:47.882Z,10.92
2018-01-26T11:03:41.082Z,11.00
2018-01-26T11:04:40.937Z,11.18
2018-01-26T11:06:33.894Z,11.18
2018-01-26T11:07:33.846Z,11.15
2018-01-26T11:09:26.683Z,11.22
2018-01-26T11:10:26.622Z,11.27
2018-01-26T11:12:19.440Z,11.30
2018-01-26T11:13:19.423Z,11.22
2018-01-26T11:15:12.588Z,11.37
2018-01-26T11:16:12.512Z,11.41
2018-01-26T11:18:05.446Z,11.45
2018-01-26T11:19:05.410Z,11.43
2018-01-26T11:20:58.428Z,11.59
2018-01-26T11:21:58.328Z,11.75
2018-01-26T11:23:51.167Z,11.72
2018-01-26T11:24:51.137Z,11.70
2018-01-26T11:26:44.104Z,11.70
2018-01-26T11:27:44.056Z,11.80
2018-01-26T11:29:37.002Z,11.83
2018-01-26T11:30:36.987Z,11.66
2018-01-26T11:32:29.951Z,11.36
2018-01-26T11:33:29.905Z,11.43
2018-01-26T11:35:22.937Z,11.22
2018-01-26T11:36:22.721Z,11.27
2018-01-26T11:38:15.693Z,11.54
2018-01-26T11:39:15.671Z,11.43
2018-01-26T11:41:08.648Z,11.75
2018-01-26T11:42:08.609Z,11.70
2018-01-26T11:44:01.768Z,11.44
2018-01-26T11:45:01.693Z,11.40
2018-01-26T11:46:54.523Z,11.43
2018-01-26T11:47:54.468Z,11.47
2018-01-26T11:49:47.422Z,11.47
2018-01-26T11:50:47.473Z,11.54
2018-01-26T11:52:40.216Z,11.33
2018-01-26T11:53:40.162Z,11.44
2018-01-26T11:55:32.988Z,11.65
2018-01-26T11:56:32.947Z,11.63
2018-01-26T11:58:25.898Z,11.59
2018-01-26T11:59:25.726Z,11.60
2018-01-26T12:01:18.702Z,11.72
2018-01-26T12:02:18.649Z,11.36
2018-01-26T12:04:11.663Z,11.47
2018-01-26T12:05:11.611Z,11.41
2018-01-26T12:07:04.482Z,11.59
2018-01-26T12:08:04.390Z,11.69
2018-01-26T12:09:57.478Z,11.77
2018-01-26T12:10:57.172Z,11.81
2018-01-26T12:12:49.960Z,12.02
2018-01-26T12:13:49.931Z,12.07
2018-01-26T12:15:42.899Z,12.42
2018-01-26T12:16:42.842Z,12.53
2018-01-26T12:18:35.820Z,13.00
2018-01-26T12:19:35.755Z,13.19
2018-01-26T12:21:28.597Z,13.72
2018-01-26T12:22:28.546Z,14.07
2018-01-26T12:24:21.512Z,14.12
2018-01-26T12:25:21.472Z,14.23
2018-01-26T12:27:14.459Z,14.11
2018-01-26T12:28:14.462Z,13.09
2018-01-26T12:30:07.387Z,13.03
2018-01-26T12:31:07.302Z,13.15
2018-01-26T12:33:00.173Z,13.75
2018-01-26T12:34:00.114Z,13.54
2018-01-26T12:35:53.089Z,13.75
2018-01-26T12:36:53.052Z,13.59
2018-01-26T12:38:45.989Z,13.31
2018-01-26T12:39:46.150Z,13.39
2018-01-26T12:41:39.233Z,13.42
2018-01-26T12:42:39.105Z,13.38
2018-01-26T12:44:32.088Z,13.31
2018-01-26T12:45:32.028Z,13.03
2018-01-26T12:47:25.023Z,13.11
2018-01-26T12:48:24.963Z,13.05
2018-01-26T12:50:17.862Z,12.65
2018-01-26T12:51:17.826Z,12.61
2018-01-26T12:53:10.804Z,12.61
2018-01-26T12:54:10.744Z,12.54
2018-01-26T12:56:03.697Z,12.50
2018-01-26T12:57:03.763Z,12.46
2018-01-26T12:58:56.923Z,12.25
2018-01-26T12:59:56.868Z,12.21
2018-01-26T13:01:49.677Z,12.15
2018-01-26T13:02:49.627Z,12.12
2018-01-26T13:04:42.649Z,12.07
2018-01-26T13:05:42.651Z,11.94
2018-01-26T13:07:35.769Z,11.72
2018-01-26T13:08:35.712Z,11.66
2018-01-26T13:10:28.702Z,11.57
2018-01-26T13:11:28.627Z,11.65
2018-01-26T13:13:21.599Z,11.44
2018-01-26T13:14:21.564Z,11.37
2018-01-26T13:16:14.403Z,11.22
2018-01-26T13:17:14.353Z,11.14
2018-01-26T13:19:07.316Z,10.94
2018-01-26T13:20:07.289Z,11.04
2018-01-26T13:22:00.251Z,11.11
2018-01-26T13:23:00.189Z,11.30
2018-01-26T13:24:52.999Z,11.48
2018-01-26T13:25:52.960Z,11.40
2018-01-26T13:27:45.907Z,11.50
2018-01-26T13:28:45.853Z,11.47
2018-01-26T13:30:38.842Z,11.44
2018-01-26T13:31:38.784Z,11.43
2018-01-26T13:33:31.714Z,11.32
2018-01-26T13:34:31.761Z,11.43
2018-01-26T13:36:24.969Z,11.47
2018-01-26T13:37:24.824Z,11.33
2018-01-26T13:39:17.782Z,11.19
2018-01-26T13:40:17.758Z,11.36
2018-01-26T13:42:10.732Z,11.30
2018-01-26T13:43:10.679Z,11.22
2018-01-26T13:45:03.479Z,11.19
2018-01-26T13:46:03.467Z,11.26
2018-01-26T13:47:56.482Z,10.92
2018-01-26T13:48:56.435Z,10.89
2018-01-26T13:50:49.387Z,10.97
2018-01-26T13:51:49.358Z,10.92
2018-01-26T13:53:42.330Z,10.93
2018-01-26T13:54:42.277Z,10.87
2018-01-26T13:56:35.350Z,10.87
2018-01-26T13:57:35.288Z,10.79
2018-01-26T13:59:28.250Z,10.93
2018-01-26T14:00:28.219Z,10.76
2018-01-26T14:02:21.565Z,10.61
2018-01-26T14:03:21.348Z,10.67
2018-01-26T14:05:14.294Z,10.89
2018-01-26T14:06:14.268Z,10.81
2018-01-26T14:08:07.227Z,11.04
2018-01-26T14:09:07.184Z,10.93
2018-01-26T14:11:00.347Z,10.92
2018-01-26T14:12:00.314Z,11.02
2018-01-26T14:13:53.434Z,10.92
2018-01-26T14:14:53.097Z,10.81
2018-01-26T14:16:46.048Z,10.81
2018-01-26T14:17:46.021Z,10.69
2018-01-26T14:19:39.231Z,10.67
2018-01-26T14:20:39.128Z,10.57
2018-01-26T14:22:32.124Z,10.67
2018-01-26T14:23:32.036Z,10.60
2018-01-26T14:25:24.995Z,10.60
2018-01-26T14:26:24.961Z,10.59
2018-01-26T14:28:18.123Z,10.42
2018-01-26T14:29:18.037Z,10.31
2018-01-26T14:31:11.009Z,10.31
2018-01-26T14:32:11.047Z,10.35
2018-01-26T14:34:03.800Z,10.28
2018-01-26T14:35:03.739Z,10.30
2018-01-26T14:36:56.926Z,10.35
2018-01-26T14:37:56.874Z,10.20
2018-01-26T14:39:49.703Z,10.20
2018-01-26T14:40:49.638Z,10.20
2018-01-26T14:42:42.610Z,10.04
2018-01-26T14:43:42.562Z,10.13
2018-01-26T14:45:35.827Z,10.23
2018-01-26T14:46:35.677Z,10.15
2018-01-26T14:48:28.493Z,10.28
2018-01-26T14:49:28.455Z,10.34
2018-01-26T14:51:21.428Z,10.26
2018-01-26T14:52:21.377Z,10.26
2018-01-26T14:54:14.508Z,10.26
2018-01-26T14:55:14.450Z,10.16
2018-01-26T14:57:07.421Z,10.10
2018-01-26T14:58:07.401Z,10.10
2018-01-26T15:00:00.214Z,10.09
2018-01-26T15:01:00.179Z,9.94
2018-01-26T15:02:53.109Z,9.92
2018-01-26T15:03:53.086Z,9.97
2018-01-26T15:05:45.893Z,9.94
2018-01-26T15:06:45.845Z,9.95
2018-01-26T15:08:38.794Z,9.84
2018-01-26T15:09:38.759Z,9.79
2018-01-26T15:11:31.750Z,9.79
2018-01-26T15:12:31.682Z,9.82
2018-01-26T15:14:24.633Z,9.66
2018-01-26T15:15:24.597Z,9.69
2018-01-26T15:17:17.414Z,9.89
2018-01-26T15:18:17.373Z,9.95
2018-01-26T15:20:10.316Z,9.97
2018-01-26T15:21:10.272Z,10.02
2018-01-26T15:23:03.090Z,10.07
2018-01-26T15:24:03.043Z,10.05
2018-01-26T15:25:56.015Z,10.15
2018-01-26T15:26:55.971Z,10.13
2018-01-26T15:28:49.173Z,10.05
2018-01-26T15:29:49.027Z,10.10
2018-01-26T15:31:41.994Z,9.99
2018-01-26T15:32:41.969Z,10.07
2018-01-26T15:34:34.784Z,10.05
2018-01-26T15:35:34.808Z,9.99
2018-01-26T15:37:27.546Z,10.02
2018-01-26T15:38:27.486Z,9.97
2018-01-26T15:40:20.360Z,9.94
2018-01-26T15:41:20.295Z,9.94
2018-01-26T15:43:13.268Z,9.84
2018-01-26T15:44:13.238Z,9.83
2018-01-26T15:46:06.163Z,9.80
2018-01-26T15:47:06.213Z,9.72
2018-01-26T15:48:59.365Z,9.65
2018-01-26T15:49:59.193Z,9.61
2018-01-26T15:51:52.005Z,9.37
2018-01-26T15:52:51.958Z,9.29
2018-01-26T15:54:44.800Z,9.41
2018-01-26T15:55:44.739Z,9.36
2018-01-26T15:57:37.534Z,9.40
2018-01-26T15:58:37.488Z,9.36
2018-01-26T16:00:30.463Z,9.29
2018-01-26T16:01:30.409Z,9.36
2018-01-26T16:03:23.261Z,9.23
2018-01-26T16:04:23.212Z,9.21
2018-01-26T16:06:16.214Z,9.13
2018-01-26T16:07:16.138Z,9.06
2018-01-26T16:09:09.398Z,9.00
2018-01-26T16:10:09.175Z,8.99
2018-01-26T16:12:02.022Z,9.04
2018-01-26T16:13:01.982Z,9.00
2018-01-26T16:14:54.894Z,8.94
2018-01-26T16:15:54.819Z,8.87
2018-01-26T16:17:47.772Z,8.74
2018-01-26T16:18:47.734Z,8.79
2018-01-26T16:20:40.715Z,8.61
2018-01-26T16:21:40.714Z,8.61
2018-01-26T16:23:33.898Z,8.58
2018-01-26T16:24:33.727Z,8.48
2018-01-26T16:26:26.563Z,8.45
2018-01-26T16:27:26.493Z,8.42
2018-01-26T16:29:19.462Z,8.38
2018-01-26T16:30:19.549Z,8.42
2018-01-26T16:32:12.409Z,8.36
2018-01-26T16:33:12.353Z,8.33
2018-01-26T16:35:05.143Z,8.34
2018-01-26T16:36:05.104Z,8.31
2018-01-26T16:37:58.062Z,8.31
2018-01-26T16:38:58.007Z,8.24
2018-01-26T16:40:50.989Z,8.18
2018-01-26T16:41:50.959Z,8.16
2018-01-26T16:43:44.298Z,8.15
2018-01-26T16:44:44.016Z,8.05
2018-01-26T16:46:36.836Z,8.06
2018-01-26T16:47:36.779Z,8.08
2018-01-26T16:49:29.751Z,8.08
2018-01-26T16:50:29.691Z,8.01
2018-01-26T16:52:22.664Z,8.03
2018-01-26T16:53:22.623Z,7.95
2018-01-26T16:55:15.415Z,8.00
2018-01-26T16:56:15.363Z,7.98
2018-01-26T16:58:08.359Z,7.95
2018-01-26T16:59:08.298Z,7.95
2018-01-26T17:01:01.241Z,7.94
2018-01-26T17:02:01.211Z,7.98
2018-01-26T17:03:54.175Z,7.93
2018-01-26T17:04:54.123Z,7.95
2018-01-26T17:06:46.986Z,7.94
2018-01-26T17:07:46.953Z,7.87
2018-01-26T17:09:39.911Z,7.95
2018-01-26T17:10:39.872Z,7.95
2018-01-26T17:12:32.835Z,7.91
2018-01-26T17:13:32.778Z,7.87
2018-01-26T17:15:25.893Z,7.88
2018-01-26T17:16:25.853Z,7.83
2018-01-26T17:18:18.844Z,7.75
2018-01-26T17:19:18.781Z,7.82
2018-01-26T17:21:11.741Z,7.66
2018-01-26T17:22:11.701Z,7.67
2018-01-26T17:24:04.943Z,7.63
2018-01-26T17:25:04.789Z,7.63
2018-01-26T17:26:57.600Z,7.61
2018-01-26T17:27:57.568Z,7.66
2018-01-26T17:29:50.543Z,7.56
2018-01-26T17:30:50.570Z,7.63
2018-01-26T17:32:43.289Z,7.47
2018-01-26T17:33:43.224Z,7.48
2018-01-26T17:35:36.080Z,7.53
2018-01-26T17:36:36.032Z,7.47
2018-01-26T17:38:28.892Z,7.54
2018-01-26T17:39:28.788Z,7.40
2018-01-26T17:41:21.763Z,7.43
2018-01-26T17:42:21.721Z,7.45
2018-01-26T17:44:14.847Z,7.48
2018-01-26T17:45:14.784Z,7.48
2018-01-26T17:47:07.614Z,7.40
2018-01-26T17:48:07.544Z,7.40
2018-01-26T17:50:00.545Z,7.35
2018-01-26T17:51:00.479Z,7.38
2018-01-26T17:52:53.433Z,7.36
2018-01-26T17:53:53.400Z,7.36
2018-01-26T17:55:46.389Z,7.35
2018-01-26T17:56:46.330Z,7.35
2018-01-26T17:58:39.329Z,7.31
2018-01-26T17:59:39.276Z,7.36
2018-01-26T18:01:32.384Z,7.36
2018-01-26T18:02:32.380Z,7.33
2018-01-26T18:04:25.648Z,7.33
2018-01-26T18:05:25.551Z,7.38
2018-01-26T18:07:18.385Z,7.38
2018-01-26T18:08:18.324Z,7.25
2018-01-26T18:10:11.294Z,7.25
2018-01-26T18:11:11.233Z,7.25
2018-01-26T18:13:04.403Z,7.25
2018-01-26T18:14:04.302Z,7.21
2018-01-26T18:15:57.276Z,7.24
2018-01-26T18:16:57.240Z,7.21
2018-01-26T18:18:50.080Z,7.14
2018-01-26T18:19:50.020Z,7.18
2018-01-26T18:21:42.969Z,7.23
2018-01-26T18:22:42.751Z,7.18
2018-01-26T18:24:35.585Z,7.14
2018-01-26T18:25:35.545Z,7.00
2018-01-26T18:27:28.561Z,7.07
2018-01-26T18:28:28.501Z,7.06
2018-01-26T18:30:21.485Z,7.07
2018-01-26T18:31:21.444Z,7.02
2018-01-26T18:33:14.409Z,6.96
2018-01-26T18:34:14.381Z,6.92
2018-01-26T18:36:07.179Z,6.87
2018-01-26T18:37:07.126Z,6.92
2018-01-26T18:39:00.097Z,6.82
2018-01-26T18:40:00.038Z,6.78
2018-01-26T18:41:52.975Z,6.75
2018-01-26T18:42:53.069Z,6.75
2018-01-26T18:44:46.073Z,6.74
2018-01-26T18:45:46.004Z,6.72
2018-01-26T18:47:38.987Z,6.69
2018-01-26T18:48:38.940Z,6.63
2018-01-26T18:50:31.888Z,6.59
2018-01-26T18:51:31.860Z,6.60
2018-01-26T18:53:25.028Z,6.52
2018-01-26T18:54:24.937Z,6.54
2018-01-26T18:56:17.731Z,6.46
2018-01-26T18:57:17.686Z,6.51
2018-01-26T18:59:10.818Z,6.49
2018-01-26T19:00:10.630Z,6.48
2018-01-26T19:02:03.620Z,6.52